Aeroporto :
LOGIN :

Iscrizione | Disclaimer

   EN    FR    IT 

 










Sommario :    VFR   VFR Marginale   IFR   IFR Intensivo   IFR Molto Intensivo
Visibilità : 
Base nubi : 
>= 8 km
>= 3000ft
5 / 8 km
1000 / 3000 ft
1500m / 5 km
500 / 1000 ft
800 / 1500m
200 / 500 ft
< 800m
< 200 ft
Simboli :   Temporali  Nebbia  Neve Forte  Precipitazioni Forti  Vento > 20 kt
SIGMETs :   Varie  Temporali  Ghiacco  Turbolenza  Onda orograficha  Ceneri Vulcaniche






- Altitudine del aeroporto : 353 ft
- Codice IATA : LIN


LIML - Milano Linate

ULTIMO METAR :
  • 251450Z 35004KT 270V040 7000 FEW015 BKN060 14/09 Q1007 NOSIG

METARs OBSOLETI :
  • 251420Z VRB01KT 3500 BR FEW015 BKN060 14/08 Q1007 NOSIG
  • 251350Z VRB01KT 3500 BR BKN060 13/09 Q1008 NOSIG
  • 251320Z VRB02KT 4000 BR FEW025 BKN060 13/08 Q1008 NOSIG
  • 251250Z VRB02KT 4000 BR FEW025 BKN060 13/08 Q1009 NOSIG
  • 251220Z VRB01KT 4000 BR FEW025 BKN060 13/08 Q1009 NOSIG

TAF TAF LIML
Valido dal 25 a 12 ore il 26 a 12 ore UTC


251100Z 2512/2612 VRB05KT 4000 BR BKN035
TEMPO 2522/2602 1500 BCFG
BECMG 2602/2605 28010KT 9999
TEMPO 2610/2612 30015G25KT



MetMap, La meteo Aeronautica in un colpo d'occhio ! - Copyright ORBIFLY Dicembre 2007 - Disclaimer

ORBIFLY MET'MAP TEAM :

Programmazione e sviluppo : Alexandra Zaïnal
Concezione : Baudouin d'Aumeries
Aiuto per la programmazione : Marc-Olivier Méhu
Supporto tecnico e logistico : Manuel Goepfert
Aiuto per la traduzione : Arnaldo La Scala

Contatto : metmap@orbifly.com




FONTI E CREDITI :

   NOAA